sensor_id;sensor_type;location;lat;lon;timestamp;P1;durP1;ratioP1;P2;durP2;ratioP2
7997;SDS011;4044;49.814;7.828;2022-12-22T00:01:24;2.70;;;2.03;;
7997;SDS011;4044;49.814;7.828;2022-12-22T00:04:09;1.90;;;1.80;;
7997;SDS011;4044;49.814;7.828;2022-12-22T00:06:54;2.20;;;2.00;;
7997;SDS011;4044;49.814;7.828;2022-12-22T00:09:38;2.23;;;1.80;;
7997;SDS011;4044;49.814;7.828;2022-12-22T00:12:22;2.33;;;2.13;;
7997;SDS011;4044;49.814;7.828;2022-12-22T00:15:08;2.13;;;1.80;;
7997;SDS011;4044;49.814;7.828;2022-12-22T00:17:57;1.60;;;1.50;;
7997;SDS011;4044;49.814;7.828;2022-12-22T00:20:41;2.30;;;1.90;;
7997;SDS011;4044;49.814;7.828;2022-12-22T00:23:25;1.93;;;1.83;;
7997;SDS011;4044;49.814;7.828;2022-12-22T00:26:09;3.33;;;1.80;;
7997;SDS011;4044;49.814;7.828;2022-12-22T00:28:53;3.73;;;1.90;;
7997;SDS011;4044;49.814;7.828;2022-12-22T00:31:38;1.67;;;1.57;;
7997;SDS011;4044;49.814;7.828;2022-12-22T00:34:23;1.67;;;1.50;;
7997;SDS011;4044;49.814;7.828;2022-12-22T00:37:10;1.70;;;1.60;;
7997;SDS011;4044;49.814;7.828;2022-12-22T00:39:56;1.77;;;1.67;;
7997;SDS011;4044;49.814;7.828;2022-12-22T00:42:41;1.40;;;1.30;;
7997;SDS011;4044;49.814;7.828;2022-12-22T00:45:25;1.50;;;1.40;;
7997;SDS011;4044;49.814;7.828;2022-12-22T00:48:24;1.30;;;1.20;;
7997;SDS011;4044;49.814;7.828;2022-12-22T00:51:09;1.63;;;1.23;;
7997;SDS011;4044;49.814;7.828;2022-12-22T00:53:54;2.80;;;1.20;;
7997;SDS011;4044;49.814;7.828;2022-12-22T00:56:39;1.70;;;1.00;;
7997;SDS011;4044;49.814;7.828;2022-12-22T00:59:24;1.00;;;1.00;;
7997;SDS011;4044;49.814;7.828;2022-12-22T01:02:10;1.20;;;1.00;;
7997;SDS011;4044;49.814;7.828;2022-12-22T01:04:54;1.33;;;1.23;;
7997;SDS011;4044;49.814;7.828;2022-12-22T01:07:38;1.13;;;1.10;;
7997;SDS011;4044;49.814;7.828;2022-12-22T01:10:22;1.00;;;0.90;;
7997;SDS011;4044;49.814;7.828;2022-12-22T01:13:09;3.80;;;1.37;;
7997;SDS011;4044;49.814;7.828;2022-12-22T01:15:57;1.00;;;1.00;;
7997;SDS011;4044;49.814;7.828;2022-12-22T01:18:41;1.00;;;1.00;;
7997;SDS011;4044;49.814;7.828;2022-12-22T01:21:25;1.40;;;1.30;;
7997;SDS011;4044;49.814;7.828;2022-12-22T01:24:11;1.50;;;1.40;;
7997;SDS011;4044;49.814;7.828;2022-12-22T01:26:56;1.10;;;0.90;;
7997;SDS011;4044;49.814;7.828;2022-12-22T01:29:40;1.20;;;1.10;;
7997;SDS011;4044;49.814;7.828;2022-12-22T01:32:25;1.90;;;1.00;;
7997;SDS011;4044;49.814;7.828;2022-12-22T01:35:16;0.80;;;0.80;;
7997;SDS011;4044;49.814;7.828;2022-12-22T01:38:02;1.33;;;0.90;;
7997;SDS011;4044;49.814;7.828;2022-12-22T01:40:47;2.33;;;0.90;;
7997;SDS011;4044;49.814;7.828;2022-12-22T01:43:32;0.87;;;0.87;;
7997;SDS011;4044;49.814;7.828;2022-12-22T01:49:23;1.10;;;1.00;;
7997;SDS011;4044;49.814;7.828;2022-12-22T01:52:11;1.13;;;1.03;;
7997;SDS011;4044;49.814;7.828;2022-12-22T01:54:58;1.03;;;0.93;;
7997;SDS011;4044;49.814;7.828;2022-12-22T01:57:47;1.23;;;1.10;;
7997;SDS011;4044;49.814;7.828;2022-12-22T02:00:31;2.13;;;1.00;;
7997;SDS011;4044;49.814;7.828;2022-12-22T02:03:19;0.83;;;0.83;;
7997;SDS011;4044;49.814;7.828;2022-12-22T02:15:50;0.80;;;0.80;;
7997;SDS011;4044;49.814;7.828;2022-12-22T02:18:38;0.80;;;0.80;;
7997;SDS011;4044;49.814;7.828;2022-12-22T02:21:28;1.03;;;0.63;;
7997;SDS011;4044;49.814;7.828;2022-12-22T02:24:37;0.77;;;0.77;;
7997;SDS011;4044;49.814;7.828;2022-12-22T02:27:24;1.37;;;0.90;;
7997;SDS011;4044;49.814;7.828;2022-12-22T02:30:10;1.93;;;0.70;;
7997;SDS011;4044;49.814;7.828;2022-12-22T02:32:54;0.90;;;0.70;;
7997;SDS011;4044;49.814;7.828;2022-12-22T02:35:43;1.90;;;0.93;;
7997;SDS011;4044;49.814;7.828;2022-12-22T02:38:56;0.90;;;0.90;;
7997;SDS011;4044;49.814;7.828;2022-12-22T02:42:09;2.30;;;1.10;;
7997;SDS011;4044;49.814;7.828;2022-12-22T02:45:22;1.20;;;1.10;;
7997;SDS011;4044;49.814;7.828;2022-12-22T02:51:34;0.90;;;0.90;;
7997;SDS011;4044;49.814;7.828;2022-12-22T02:54:22;2.27;;;1.00;;
7997;SDS011;4044;49.814;7.828;2022-12-22T02:57:07;2.00;;;1.00;;
7997;SDS011;4044;49.814;7.828;2022-12-22T02:59:51;2.70;;;1.30;;
7997;SDS011;4044;49.814;7.828;2022-12-22T03:02:35;2.13;;;1.20;;
7997;SDS011;4044;49.814;7.828;2022-12-22T03:05:19;1.43;;;1.10;;
7997;SDS011;4044;49.814;7.828;2022-12-22T03:08:03;2.50;;;1.40;;
7997;SDS011;4044;49.814;7.828;2022-12-22T03:10:47;5.83;;;1.50;;
7997;SDS011;4044;49.814;7.828;2022-12-22T03:13:31;2.13;;;1.50;;
7997;SDS011;4044;49.814;7.828;2022-12-22T03:16:16;3.43;;;1.30;;
7997;SDS011;4044;49.814;7.828;2022-12-22T03:19:00;2.53;;;1.30;;
7997;SDS011;4044;49.814;7.828;2022-12-22T03:21:44;1.30;;;1.20;;
7997;SDS011;4044;49.814;7.828;2022-12-22T03:24:28;3.73;;;1.30;;
7997;SDS011;4044;49.814;7.828;2022-12-22T03:27:12;1.50;;;1.20;;
7997;SDS011;4044;49.814;7.828;2022-12-22T03:29:37;1.70;;;1.37;;
7997;SDS011;4044;49.814;7.828;2022-12-22T03:32:03;2.50;;;1.20;;
7997;SDS011;4044;49.814;7.828;2022-12-22T03:34:28;1.37;;;1.00;;
7997;SDS011;4044;49.814;7.828;2022-12-22T03:36:54;1.63;;;1.13;;
7997;SDS011;4044;49.814;7.828;2022-12-22T03:39:19;2.27;;;1.20;;
7997;SDS011;4044;49.814;7.828;2022-12-22T03:41:45;3.00;;;1.10;;
7997;SDS011;4044;49.814;7.828;2022-12-22T03:44:29;1.83;;;1.10;;
7997;SDS011;4044;49.814;7.828;2022-12-22T03:47:13;1.30;;;1.20;;
7997;SDS011;4044;49.814;7.828;2022-12-22T03:49:39;1.97;;;1.10;;
7997;SDS011;4044;49.814;7.828;2022-12-22T03:52:04;1.83;;;1.10;;
7997;SDS011;4044;49.814;7.828;2022-12-22T03:54:30;0.90;;;0.90;;
7997;SDS011;4044;49.814;7.828;2022-12-22T03:56:55;0.90;;;0.90;;
7997;SDS011;4044;49.814;7.828;2022-12-22T03:59:21;1.00;;;0.90;;
7997;SDS011;4044;49.814;7.828;2022-12-22T04:01:50;1.10;;;1.00;;
7997;SDS011;4044;49.814;7.828;2022-12-22T04:04:18;2.87;;;1.27;;
7997;SDS011;4044;49.814;7.828;2022-12-22T04:06:46;3.70;;;1.30;;
7997;SDS011;4044;49.814;7.828;2022-12-22T04:09:12;1.27;;;1.20;;
7997;SDS011;4044;49.814;7.828;2022-12-22T04:11:37;1.13;;;1.13;;
7997;SDS011;4044;49.814;7.828;2022-12-22T04:14:22;2.83;;;1.10;;
7997;SDS011;4044;49.814;7.828;2022-12-22T04:16:48;2.70;;;1.30;;
7997;SDS011;4044;49.814;7.828;2022-12-22T04:19:14;1.27;;;1.10;;
7997;SDS011;4044;49.814;7.828;2022-12-22T04:21:40;1.30;;;1.20;;
7997;SDS011;4044;49.814;7.828;2022-12-22T04:24:06;1.30;;;1.10;;
7997;SDS011;4044;49.814;7.828;2022-12-22T04:26:32;1.70;;;1.00;;
7997;SDS011;4044;49.814;7.828;2022-12-22T04:28:58;1.93;;;1.10;;
7997;SDS011;4044;49.814;7.828;2022-12-22T04:31:23;0.93;;;0.93;;
7997;SDS011;4044;49.814;7.828;2022-12-22T04:33:49;1.33;;;1.07;;
7997;SDS011;4044;49.814;7.828;2022-12-22T04:36:15;1.97;;;1.10;;
7997;SDS011;4044;49.814;7.828;2022-12-22T04:38:40;1.20;;;1.00;;
7997;SDS011;4044;49.814;7.828;2022-12-22T04:41:06;1.83;;;0.80;;
7997;SDS011;4044;49.814;7.828;2022-12-22T04:43:32;0.80;;;0.77;;
7997;SDS011;4044;49.814;7.828;2022-12-22T04:45:58;1.80;;;0.80;;
7997;SDS011;4044;49.814;7.828;2022-12-22T04:48:25;1.20;;;1.10;;
7997;SDS011;4044;49.814;7.828;2022-12-22T04:50:53;2.00;;;0.80;;
7997;SDS011;4044;49.814;7.828;2022-12-22T04:53:20;0.53;;;0.53;;
7997;SDS011;4044;49.814;7.828;2022-12-22T04:55:46;0.70;;;0.70;;
7997;SDS011;4044;49.814;7.828;2022-12-22T04:58:13;0.70;;;0.70;;
7997;SDS011;4044;49.814;7.828;2022-12-22T05:00:38;0.93;;;0.50;;
7997;SDS011;4044;49.814;7.828;2022-12-22T05:03:04;0.50;;;0.50;;
7997;SDS011;4044;49.814;7.828;2022-12-22T05:05:30;0.40;;;0.40;;
7997;SDS011;4044;49.814;7.828;2022-12-22T05:07:56;0.83;;;0.57;;
7997;SDS011;4044;49.814;7.828;2022-12-22T05:10:21;0.60;;;0.60;;
7997;SDS011;4044;49.814;7.828;2022-12-22T05:12:47;0.77;;;0.57;;
7997;SDS011;4044;49.814;7.828;2022-12-22T05:15:19;1.03;;;0.60;;
7997;SDS011;4044;49.814;7.828;2022-12-22T05:17:49;0.67;;;0.60;;
7997;SDS011;4044;49.814;7.828;2022-12-22T05:20:14;0.73;;;0.70;;
7997;SDS011;4044;49.814;7.828;2022-12-22T05:22:40;0.50;;;0.50;;
7997;SDS011;4044;49.814;7.828;2022-12-22T05:25:06;2.27;;;0.80;;
7997;SDS011;4044;49.814;7.828;2022-12-22T05:27:32;2.23;;;0.70;;
7997;SDS011;4044;49.814;7.828;2022-12-22T05:29:57;1.13;;;0.80;;
7997;SDS011;4044;49.814;7.828;2022-12-22T05:32:23;0.70;;;0.70;;
7997;SDS011;4044;49.814;7.828;2022-12-22T05:34:48;1.43;;;1.07;;
7997;SDS011;4044;49.814;7.828;2022-12-22T05:37:14;1.33;;;0.60;;
7997;SDS011;4044;49.814;7.828;2022-12-22T05:39:39;2.27;;;0.80;;
7997;SDS011;4044;49.814;7.828;2022-12-22T05:42:05;1.27;;;0.80;;
7997;SDS011;4044;49.814;7.828;2022-12-22T05:44:30;1.63;;;0.80;;
7997;SDS011;4044;49.814;7.828;2022-12-22T05:46:56;1.10;;;0.80;;
7997;SDS011;4044;49.814;7.828;2022-12-22T05:49:21;3.27;;;1.17;;
7997;SDS011;4044;49.814;7.828;2022-12-22T05:51:47;1.73;;;0.90;;
7997;SDS011;4044;49.814;7.828;2022-12-22T05:54:12;2.83;;;1.03;;
7997;SDS011;4044;49.814;7.828;2022-12-22T05:56:38;1.93;;;1.00;;
7997;SDS011;4044;49.814;7.828;2022-12-22T05:59:03;2.30;;;1.00;;
7997;SDS011;4044;49.814;7.828;2022-12-22T06:01:29;1.93;;;0.73;;
7997;SDS011;4044;49.814;7.828;2022-12-22T06:03:54;0.87;;;0.87;;
7997;SDS011;4044;49.814;7.828;2022-12-22T06:06:20;1.17;;;0.60;;
7997;SDS011;4044;49.814;7.828;2022-12-22T06:08:46;1.90;;;0.70;;
7997;SDS011;4044;49.814;7.828;2022-12-22T06:11:11;0.70;;;0.60;;
7997;SDS011;4044;49.814;7.828;2022-12-22T06:13:42;2.10;;;0.60;;
7997;SDS011;4044;49.814;7.828;2022-12-22T06:16:08;0.70;;;0.70;;
7997;SDS011;4044;49.814;7.828;2022-12-22T06:18:33;3.50;;;0.90;;
7997;SDS011;4044;49.814;7.828;2022-12-22T06:20:59;0.90;;;0.90;;
7997;SDS011;4044;49.814;7.828;2022-12-22T06:23:24;2.53;;;0.90;;
7997;SDS011;4044;49.814;7.828;2022-12-22T06:25:56;1.63;;;1.17;;
7997;SDS011;4044;49.814;7.828;2022-12-22T06:28:24;2.90;;;1.20;;
7997;SDS011;4044;49.814;7.828;2022-12-22T06:30:51;2.47;;;1.40;;
7997;SDS011;4044;49.814;7.828;2022-12-22T06:33:17;2.10;;;1.00;;
7997;SDS011;4044;49.814;7.828;2022-12-22T06:35:42;3.00;;;1.40;;
7997;SDS011;4044;49.814;7.828;2022-12-22T06:38:08;4.40;;;1.33;;
7997;SDS011;4044;49.814;7.828;2022-12-22T06:40:33;3.10;;;1.60;;
7997;SDS011;4044;49.814;7.828;2022-12-22T06:42:59;4.33;;;1.40;;
7997;SDS011;4044;49.814;7.828;2022-12-22T06:45:37;4.07;;;1.60;;
7997;SDS011;4044;49.814;7.828;2022-12-22T06:48:04;3.03;;;1.60;;
7997;SDS011;4044;49.814;7.828;2022-12-22T06:50:30;3.40;;;1.23;;
7997;SDS011;4044;49.814;7.828;2022-12-22T06:52:56;5.73;;;1.70;;
7997;SDS011;4044;49.814;7.828;2022-12-22T06:55:21;2.57;;;1.57;;
7997;SDS011;4044;49.814;7.828;2022-12-22T06:57:47;4.23;;;1.37;;
7997;SDS011;4044;49.814;7.828;2022-12-22T07:00:13;1.70;;;1.30;;
7997;SDS011;4044;49.814;7.828;2022-12-22T07:02:38;4.27;;;1.37;;
7997;SDS011;4044;49.814;7.828;2022-12-22T07:05:04;3.80;;;1.57;;
7997;SDS011;4044;49.814;7.828;2022-12-22T07:07:30;3.07;;;1.10;;
7997;SDS011;4044;49.814;7.828;2022-12-22T07:09:55;2.53;;;1.10;;
7997;SDS011;4044;49.814;7.828;2022-12-22T07:12:21;1.80;;;1.30;;
7997;SDS011;4044;49.814;7.828;2022-12-22T07:14:47;2.53;;;1.13;;
7997;SDS011;4044;49.814;7.828;2022-12-22T07:17:13;0.80;;;0.80;;
7997;SDS011;4044;49.814;7.828;2022-12-22T07:19:38;3.53;;;1.00;;
7997;SDS011;4044;49.814;7.828;2022-12-22T07:22:04;1.23;;;0.73;;
7997;SDS011;4044;49.814;7.828;2022-12-22T07:24:29;1.80;;;0.80;;
7997;SDS011;4044;49.814;7.828;2022-12-22T07:26:55;3.03;;;0.97;;
7997;SDS011;4044;49.814;7.828;2022-12-22T07:29:20;0.73;;;0.70;;
7997;SDS011;4044;49.814;7.828;2022-12-22T07:31:46;3.17;;;1.20;;
7997;SDS011;4044;49.814;7.828;2022-12-22T07:34:11;1.30;;;0.73;;
7997;SDS011;4044;49.814;7.828;2022-12-22T07:36:37;4.37;;;1.20;;
7997;SDS011;4044;49.814;7.828;2022-12-22T07:39:03;3.30;;;0.90;;
7997;SDS011;4044;49.814;7.828;2022-12-22T07:41:28;3.97;;;1.37;;
7997;SDS011;4044;49.814;7.828;2022-12-22T07:44:12;3.37;;;1.20;;
7997;SDS011;4044;49.814;7.828;2022-12-22T07:46:39;1.67;;;1.10;;
7997;SDS011;4044;49.814;7.828;2022-12-22T07:49:04;8.53;;;1.50;;
7997;SDS011;4044;49.814;7.828;2022-12-22T07:51:49;2.00;;;1.20;;
7997;SDS011;4044;49.814;7.828;2022-12-22T07:54:16;2.43;;;0.90;;
7997;SDS011;4044;49.814;7.828;2022-12-22T07:56:42;2.13;;;1.07;;
7997;SDS011;4044;49.814;7.828;2022-12-22T07:59:09;2.57;;;1.13;;
7997;SDS011;4044;49.814;7.828;2022-12-22T08:01:34;2.67;;;1.20;;
7997;SDS011;4044;49.814;7.828;2022-12-22T08:04:00;4.60;;;1.70;;
7997;SDS011;4044;49.814;7.828;2022-12-22T08:06:26;3.70;;;1.63;;
7997;SDS011;4044;49.814;7.828;2022-12-22T08:08:51;5.97;;;1.80;;
7997;SDS011;4044;49.814;7.828;2022-12-22T08:11:17;4.07;;;1.80;;
7997;SDS011;4044;49.814;7.828;2022-12-22T08:13:42;4.77;;;1.80;;
7997;SDS011;4044;49.814;7.828;2022-12-22T08:16:09;4.37;;;1.70;;
7997;SDS011;4044;49.814;7.828;2022-12-22T08:18:36;4.63;;;2.03;;
7997;SDS011;4044;49.814;7.828;2022-12-22T08:21:02;4.33;;;1.60;;
7997;SDS011;4044;49.814;7.828;2022-12-22T08:23:28;3.03;;;1.33;;
7997;SDS011;4044;49.814;7.828;2022-12-22T08:25:55;6.03;;;2.00;;
7997;SDS011;4044;49.814;7.828;2022-12-22T08:28:27;9.70;;;2.27;;
7997;SDS011;4044;49.814;7.828;2022-12-22T08:30:54;6.47;;;1.93;;
7997;SDS011;4044;49.814;7.828;2022-12-22T08:33:19;8.40;;;2.40;;
7997;SDS011;4044;49.814;7.828;2022-12-22T08:35:45;4.20;;;1.70;;
7997;SDS011;4044;49.814;7.828;2022-12-22T08:38:11;8.63;;;2.37;;
7997;SDS011;4044;49.814;7.828;2022-12-22T08:40:38;8.33;;;1.80;;
7997;SDS011;4044;49.814;7.828;2022-12-22T08:43:06;5.80;;;2.47;;
7997;SDS011;4044;49.814;7.828;2022-12-22T08:45:34;4.60;;;2.30;;
7997;SDS011;4044;49.814;7.828;2022-12-22T08:47:59;4.87;;;1.80;;
7997;SDS011;4044;49.814;7.828;2022-12-22T08:50:25;3.50;;;1.50;;
7997;SDS011;4044;49.814;7.828;2022-12-22T08:52:50;5.80;;;2.00;;
7997;SDS011;4044;49.814;7.828;2022-12-22T08:55:16;3.77;;;1.60;;
7997;SDS011;4044;49.814;7.828;2022-12-22T08:57:42;2.63;;;1.43;;
7997;SDS011;4044;49.814;7.828;2022-12-22T09:00:08;5.50;;;1.70;;
7997;SDS011;4044;49.814;7.828;2022-12-22T09:02:35;4.83;;;1.30;;
7997;SDS011;4044;49.814;7.828;2022-12-22T09:05:00;7.57;;;2.30;;
7997;SDS011;4044;49.814;7.828;2022-12-22T09:07:26;6.83;;;1.60;;
7997;SDS011;4044;49.814;7.828;2022-12-22T09:09:52;3.57;;;1.60;;
7997;SDS011;4044;49.814;7.828;2022-12-22T09:12:18;3.57;;;1.23;;
7997;SDS011;4044;49.814;7.828;2022-12-22T09:14:44;4.57;;;1.80;;
7997;SDS011;4044;49.814;7.828;2022-12-22T09:17:09;3.87;;;1.27;;
7997;SDS011;4044;49.814;7.828;2022-12-22T09:19:35;3.20;;;1.60;;
7997;SDS011;4044;49.814;7.828;2022-12-22T09:22:01;3.17;;;1.43;;
7997;SDS011;4044;49.814;7.828;2022-12-22T09:24:26;4.03;;;1.60;;
7997;SDS011;4044;49.814;7.828;2022-12-22T09:26:52;3.50;;;1.40;;
7997;SDS011;4044;49.814;7.828;2022-12-22T09:29:17;1.97;;;1.10;;
7997;SDS011;4044;49.814;7.828;2022-12-22T09:31:43;2.67;;;1.13;;
7997;SDS011;4044;49.814;7.828;2022-12-22T09:34:09;2.20;;;1.30;;
7997;SDS011;4044;49.814;7.828;2022-12-22T09:36:34;2.37;;;1.37;;
7997;SDS011;4044;49.814;7.828;2022-12-22T09:39:04;3.27;;;1.30;;
7997;SDS011;4044;49.814;7.828;2022-12-22T09:41:42;4.20;;;1.67;;
7997;SDS011;4044;49.814;7.828;2022-12-22T09:44:21;3.50;;;1.20;;
7997;SDS011;4044;49.814;7.828;2022-12-22T09:46:54;4.13;;;1.30;;
7997;SDS011;4044;49.814;7.828;2022-12-22T09:49:22;3.57;;;1.03;;
7997;SDS011;4044;49.814;7.828;2022-12-22T09:51:52;1.70;;;1.03;;
7997;SDS011;4044;49.814;7.828;2022-12-22T09:54:21;1.50;;;1.00;;
7997;SDS011;4044;49.814;7.828;2022-12-22T09:56:48;0.97;;;0.93;;
7997;SDS011;4044;49.814;7.828;2022-12-22T09:59:15;1.47;;;0.80;;
7997;SDS011;4044;49.814;7.828;2022-12-22T10:04:18;2.13;;;1.13;;
7997;SDS011;4044;49.814;7.828;2022-12-22T10:06:55;1.70;;;1.00;;
7997;SDS011;4044;49.814;7.828;2022-12-22T10:09:28;1.17;;;0.80;;
7997;SDS011;4044;49.814;7.828;2022-12-22T10:11:56;2.90;;;1.00;;
7997;SDS011;4044;49.814;7.828;2022-12-22T10:14:30;1.17;;;0.80;;
7997;SDS011;4044;49.814;7.828;2022-12-22T10:19:53;1.13;;;0.90;;
7997;SDS011;4044;49.814;7.828;2022-12-22T10:22:32;1.80;;;0.70;;
7997;SDS011;4044;49.814;7.828;2022-12-22T10:25:01;1.07;;;0.70;;
7997;SDS011;4044;49.814;7.828;2022-12-22T10:27:30;2.60;;;0.73;;
7997;SDS011;4044;49.814;7.828;2022-12-22T10:32:57;0.87;;;0.60;;
7997;SDS011;4044;49.814;7.828;2022-12-22T10:35:36;0.47;;;0.47;;
7997;SDS011;4044;49.814;7.828;2022-12-22T10:38:14;0.70;;;0.60;;
7997;SDS011;4044;49.814;7.828;2022-12-22T10:40:42;0.50;;;0.50;;
7997;SDS011;4044;49.814;7.828;2022-12-22T10:43:10;1.17;;;0.53;;
7997;SDS011;4044;49.814;7.828;2022-12-22T10:45:46;0.73;;;0.70;;
7997;SDS011;4044;49.814;7.828;2022-12-22T10:48:12;0.40;;;0.40;;
7997;SDS011;4044;49.814;7.828;2022-12-22T10:50:47;0.20;;;0.20;;
7997;SDS011;4044;49.814;7.828;2022-12-22T10:53:14;0.93;;;0.57;;
7997;SDS011;4044;49.814;7.828;2022-12-22T10:55:39;0.70;;;0.30;;
7997;SDS011;4044;49.814;7.828;2022-12-22T11:00:34;0.57;;;0.57;;
7997;SDS011;4044;49.814;7.828;2022-12-22T11:03:02;1.27;;;0.50;;
7997;SDS011;4044;49.814;7.828;2022-12-22T11:05:30;0.63;;;0.63;;
7997;SDS011;4044;49.814;7.828;2022-12-22T11:07:56;0.40;;;0.40;;
7997;SDS011;4044;49.814;7.828;2022-12-22T11:10:29;0.60;;;0.60;;
7997;SDS011;4044;49.814;7.828;2022-12-22T11:13:17;0.30;;;0.30;;
7997;SDS011;4044;49.814;7.828;2022-12-22T11:18:46;1.13;;;1.00;;
7997;SDS011;4044;49.814;7.828;2022-12-22T11:21:22;0.50;;;0.50;;
7997;SDS011;4044;49.814;7.828;2022-12-22T11:24:22;0.80;;;0.50;;
7997;SDS011;4044;49.814;7.828;2022-12-22T11:40:34;0.60;;;0.60;;
7997;SDS011;4044;49.814;7.828;2022-12-22T11:54:15;0.67;;;0.67;;
7997;SDS011;4044;49.814;7.828;2022-12-22T11:56:46;0.70;;;0.70;;
7997;SDS011;4044;49.814;7.828;2022-12-22T12:07:39;1.33;;;0.70;;
7997;SDS011;4044;49.814;7.828;2022-12-22T12:10:14;0.70;;;0.70;;
7997;SDS011;4044;49.814;7.828;2022-12-22T12:23:41;0.50;;;0.50;;
7997;SDS011;4044;49.814;7.828;2022-12-22T12:29:18;0.40;;;0.40;;
7997;SDS011;4044;49.814;7.828;2022-12-22T12:31:49;0.40;;;0.40;;
7997;SDS011;4044;49.814;7.828;2022-12-22T12:34:21;0.50;;;0.50;;
7997;SDS011;4044;49.814;7.828;2022-12-22T12:36:52;0.50;;;0.50;;
7997;SDS011;4044;49.814;7.828;2022-12-22T12:50:47;1.50;;;0.70;;
7997;SDS011;4044;49.814;7.828;2022-12-22T12:53:13;0.40;;;0.40;;
7997;SDS011;4044;49.814;7.828;2022-12-22T13:01:52;0.43;;;0.43;;
7997;SDS011;4044;49.814;7.828;2022-12-22T13:03:50;0.53;;;0.53;;
7997;SDS011;4044;49.814;7.828;2022-12-22T13:09:18;0.60;;;0.60;;
7997;SDS011;4044;49.814;7.828;2022-12-22T13:11:43;0.50;;;0.50;;
7997;SDS011;4044;49.814;7.828;2022-12-22T13:14:09;0.73;;;0.73;;
7997;SDS011;4044;49.814;7.828;2022-12-22T13:16:35;0.70;;;0.70;;
7997;SDS011;4044;49.814;7.828;2022-12-22T13:19:04;0.87;;;0.87;;
7997;SDS011;4044;49.814;7.828;2022-12-22T13:21:37;0.50;;;0.50;;
7997;SDS011;4044;49.814;7.828;2022-12-22T13:26:46;0.50;;;0.50;;
7997;SDS011;4044;49.814;7.828;2022-12-22T13:31:47;1.07;;;0.60;;
7997;SDS011;4044;49.814;7.828;2022-12-22T13:37:02;0.60;;;0.60;;
7997;SDS011;4044;49.814;7.828;2022-12-22T13:42:54;0.60;;;0.60;;
7997;SDS011;4044;49.814;7.828;2022-12-22T13:48:08;1.13;;;0.80;;
7997;SDS011;4044;49.814;7.828;2022-12-22T13:50:52;0.50;;;0.50;;
7997;SDS011;4044;49.814;7.828;2022-12-22T13:53:33;0.63;;;0.63;;
7997;SDS011;4044;49.814;7.828;2022-12-22T13:56:06;0.50;;;0.50;;
7997;SDS011;4044;49.814;7.828;2022-12-22T13:58:37;0.73;;;0.60;;
7997;SDS011;4044;49.814;7.828;2022-12-22T14:03:33;0.40;;;0.40;;
7997;SDS011;4044;49.814;7.828;2022-12-22T14:05:59;0.40;;;0.40;;
7997;SDS011;4044;49.814;7.828;2022-12-22T14:08:25;1.17;;;0.50;;
7997;SDS011;4044;49.814;7.828;2022-12-22T14:10:50;0.47;;;0.47;;
7997;SDS011;4044;49.814;7.828;2022-12-22T14:13:18;1.40;;;0.53;;
7997;SDS011;4044;49.814;7.828;2022-12-22T14:15:47;0.73;;;0.73;;
7997;SDS011;4044;49.814;7.828;2022-12-22T14:18:23;0.50;;;0.50;;
7997;SDS011;4044;49.814;7.828;2022-12-22T14:20:50;0.90;;;0.87;;
7997;SDS011;4044;49.814;7.828;2022-12-22T14:23:19;1.70;;;0.90;;
7997;SDS011;4044;49.814;7.828;2022-12-22T14:25:47;0.73;;;0.70;;
7997;SDS011;4044;49.814;7.828;2022-12-22T14:30:57;0.80;;;0.80;;
7997;SDS011;4044;49.814;7.828;2022-12-22T14:38:47;0.87;;;0.70;;
7997;SDS011;4044;49.814;7.828;2022-12-22T14:44:21;1.27;;;0.80;;
7997;SDS011;4044;49.814;7.828;2022-12-22T14:49:41;1.37;;;0.73;;
7997;SDS011;4044;49.814;7.828;2022-12-22T14:52:15;0.80;;;0.80;;
7997;SDS011;4044;49.814;7.828;2022-12-22T14:55:19;1.17;;;1.17;;
7997;SDS011;4044;49.814;7.828;2022-12-22T15:01:17;1.20;;;1.20;;
7997;SDS011;4044;49.814;7.828;2022-12-22T15:03:56;1.23;;;1.17;;
7997;SDS011;4044;49.814;7.828;2022-12-22T15:11:28;1.93;;;1.00;;
7997;SDS011;4044;49.814;7.828;2022-12-22T15:13:55;0.70;;;0.70;;
7997;SDS011;4044;49.814;7.828;2022-12-22T15:16:21;0.97;;;0.93;;
7997;SDS011;4044;49.814;7.828;2022-12-22T15:18:48;0.80;;;0.80;;
7997;SDS011;4044;49.814;7.828;2022-12-22T15:21:15;0.90;;;0.90;;
7997;SDS011;4044;49.814;7.828;2022-12-22T15:23:42;1.33;;;0.73;;
7997;SDS011;4044;49.814;7.828;2022-12-22T15:26:08;1.17;;;0.67;;
7997;SDS011;4044;49.814;7.828;2022-12-22T15:28:34;1.13;;;0.50;;
7997;SDS011;4044;49.814;7.828;2022-12-22T15:30:59;1.13;;;0.57;;
7997;SDS011;4044;49.814;7.828;2022-12-22T15:33:26;0.60;;;0.60;;
7997;SDS011;4044;49.814;7.828;2022-12-22T15:35:52;1.07;;;0.40;;
7997;SDS011;4044;49.814;7.828;2022-12-22T15:38:18;0.43;;;0.43;;
7997;SDS011;4044;49.814;7.828;2022-12-22T15:40:46;0.40;;;0.40;;
7997;SDS011;4044;49.814;7.828;2022-12-22T15:43:12;0.30;;;0.30;;
7997;SDS011;4044;49.814;7.828;2022-12-22T15:45:38;0.70;;;0.40;;
7997;SDS011;4044;49.814;7.828;2022-12-22T15:48:05;0.73;;;0.50;;
7997;SDS011;4044;49.814;7.828;2022-12-22T15:50:35;0.70;;;0.70;;
7997;SDS011;4044;49.814;7.828;2022-12-22T15:53:04;0.90;;;0.80;;
7997;SDS011;4044;49.814;7.828;2022-12-22T15:55:33;0.80;;;0.80;;
7997;SDS011;4044;49.814;7.828;2022-12-22T15:58:04;1.00;;;1.00;;
7997;SDS011;4044;49.814;7.828;2022-12-22T16:00:30;1.90;;;0.90;;
7997;SDS011;4044;49.814;7.828;2022-12-22T16:02:55;1.03;;;0.90;;
7997;SDS011;4044;49.814;7.828;2022-12-22T16:05:21;0.57;;;0.57;;
7997;SDS011;4044;49.814;7.828;2022-12-22T16:07:47;0.90;;;0.50;;
7997;SDS011;4044;49.814;7.828;2022-12-22T16:10:17;1.33;;;0.80;;
7997;SDS011;4044;49.814;7.828;2022-12-22T16:12:54;0.90;;;0.90;;
7997;SDS011;4044;49.814;7.828;2022-12-22T16:15:27;1.47;;;1.40;;
7997;SDS011;4044;49.814;7.828;2022-12-22T16:17:55;2.13;;;0.80;;
7997;SDS011;4044;49.814;7.828;2022-12-22T16:20:21;0.70;;;0.70;;
7997;SDS011;4044;49.814;7.828;2022-12-22T16:22:47;1.67;;;0.80;;
7997;SDS011;4044;49.814;7.828;2022-12-22T16:25:17;3.30;;;1.10;;
7997;SDS011;4044;49.814;7.828;2022-12-22T16:27:47;1.63;;;1.20;;
7997;SDS011;4044;49.814;7.828;2022-12-22T16:30:15;2.40;;;1.40;;
7997;SDS011;4044;49.814;7.828;2022-12-22T16:32:44;27.10;;;21.63;;
7997;SDS011;4044;49.814;7.828;2022-12-22T16:37:35;7.00;;;3.73;;
7997;SDS011;4044;49.814;7.828;2022-12-22T16:40:03;3.17;;;2.13;;
7997;SDS011;4044;49.814;7.828;2022-12-22T16:42:29;4.00;;;1.83;;
7997;SDS011;4044;49.814;7.828;2022-12-22T16:44:55;4.53;;;1.70;;
7997;SDS011;4044;49.814;7.828;2022-12-22T16:47:22;9.60;;;6.67;;
7997;SDS011;4044;49.814;7.828;2022-12-22T16:49:50;5.93;;;3.70;;
7997;SDS011;4044;49.814;7.828;2022-12-22T16:52:20;9.90;;;6.90;;
7997;SDS011;4044;49.814;7.828;2022-12-22T16:54:49;5.17;;;2.73;;
7997;SDS011;4044;49.814;7.828;2022-12-22T16:57:15;9.87;;;7.87;;
7997;SDS011;4044;49.814;7.828;2022-12-22T16:59:40;4.53;;;2.17;;
7997;SDS011;4044;49.814;7.828;2022-12-22T17:02:17;7.50;;;2.40;;
7997;SDS011;4044;49.814;7.828;2022-12-22T17:04:51;5.23;;;2.37;;
7997;SDS011;4044;49.814;7.828;2022-12-22T17:07:19;4.90;;;2.50;;
7997;SDS011;4044;49.814;7.828;2022-12-22T17:09:46;5.00;;;2.27;;
7997;SDS011;4044;49.814;7.828;2022-12-22T17:12:19;10.37;;;2.90;;
7997;SDS011;4044;49.814;7.828;2022-12-22T17:14:46;25.20;;;16.03;;
7997;SDS011;4044;49.814;7.828;2022-12-22T17:17:14;13.03;;;5.73;;
7997;SDS011;4044;49.814;7.828;2022-12-22T17:19:41;14.00;;;4.20;;
7997;SDS011;4044;49.814;7.828;2022-12-22T17:22:17;11.23;;;3.73;;
7997;SDS011;4044;49.814;7.828;2022-12-22T17:24:49;13.93;;;3.73;;
7997;SDS011;4044;49.814;7.828;2022-12-22T17:27:18;13.77;;;3.60;;
7997;SDS011;4044;49.814;7.828;2022-12-22T17:29:51;16.17;;;4.03;;
7997;SDS011;4044;49.814;7.828;2022-12-22T17:32:22;11.87;;;4.50;;
7997;SDS011;4044;49.814;7.828;2022-12-22T17:34:48;16.73;;;4.97;;
7997;SDS011;4044;49.814;7.828;2022-12-22T17:37:14;20.60;;;5.07;;
7997;SDS011;4044;49.814;7.828;2022-12-22T17:39:46;23.73;;;5.60;;
7997;SDS011;4044;49.814;7.828;2022-12-22T17:42:19;20.33;;;5.30;;
7997;SDS011;4044;49.814;7.828;2022-12-22T17:44:46;22.07;;;5.93;;
7997;SDS011;4044;49.814;7.828;2022-12-22T17:47:14;22.80;;;5.90;;
7997;SDS011;4044;49.814;7.828;2022-12-22T17:49:41;24.07;;;6.07;;
7997;SDS011;4044;49.814;7.828;2022-12-22T17:52:17;18.00;;;5.00;;
7997;SDS011;4044;49.814;7.828;2022-12-22T17:54:45;24.57;;;5.80;;
7997;SDS011;4044;49.814;7.828;2022-12-22T17:57:18;19.53;;;5.10;;
7997;SDS011;4044;49.814;7.828;2022-12-22T17:59:45;19.13;;;5.63;;
7997;SDS011;4044;49.814;7.828;2022-12-22T18:02:18;20.60;;;5.87;;